Time,TemperatureF,DewpointF,PressureIn,WindDirection,WindDirectionDegrees,WindSpeedMPH,WindSpeedGustMPH,Humidity,HourlyPrecipIn,Conditions,Clouds,dailyrainin,SoftwareType,DateUTC
2013-10-31 00:00:00,39.3,36.9,30.09,SSE,166,0.0,16.0,91,0.00,,,0.00,Wunderground v.1.15,2013-10-31 04:00:00,
2013-10-31 00:05:00,39.1,36.7,30.09,SSE,166,0.0,16.0,91,0.00,,,0.00,Wunderground v.1.15,2013-10-31 04:05:00,
2013-10-31 00:10:00,39.0,36.9,30.09,SSE,166,0.0,16.0,92,0.00,,,0.00,Wunderground v.1.15,2013-10-31 04:10:00,
2013-10-31 00:15:00,38.9,36.8,30.08,SSE,166,0.0,16.0,92,0.00,,,0.00,Wunderground v.1.15,2013-10-31 04:15:00,
2013-10-31 00:20:00,39.0,37.1,30.08,SSE,166,0.0,16.0,93,0.00,,,0.00,Wunderground v.1.15,2013-10-31 04:20:00,
2013-10-31 00:25:00,39.1,37.2,30.08,SSE,166,0.0,16.0,93,0.00,,,0.00,Wunderground v.1.15,2013-10-31 04:25:00,
2013-10-31 00:30:00,39.0,37.1,30.08,SSE,166,0.0,16.0,93,0.00,,,0.00,Wunderground v.1.15,2013-10-31 04:30:00,
2013-10-31 00:35:00,38.8,36.7,30.08,SSE,166,0.0,16.0,92,0.00,,,0.00,Wunderground v.1.15,2013-10-31 04:35:00,
2013-10-31 00:40:00,38.7,36.9,30.08,SSE,166,0.0,16.0,93,0.00,,,0.00,Wunderground v.1.15,2013-10-31 04:40:00,
2013-10-31 00:45:00,38.6,36.8,30.08,SSE,166,0.0,16.0,93,0.00,,,0.00,Wunderground v.1.15,2013-10-31 04:45:00,
2013-10-31 00:55:00,38.9,37.3,30.07,SSE,166,0.0,16.0,94,0.00,,,0.00,Wunderground v.1.15,2013-10-31 04:55:00,
2013-10-31 01:00:00,39.1,37.8,30.07,SSE,166,0.0,16.0,95,0.00,,,0.00,Wunderground v.1.15,2013-10-31 05:00:00,
2013-10-31 01:05:00,39.2,37.6,30.06,SSE,166,0.0,16.0,94,0.00,,,0.00,Wunderground v.1.15,2013-10-31 05:05:00,
2013-10-31 01:10:00,39.6,38.3,30.06,SSE,166,0.0,16.0,95,0.00,,,0.00,Wunderground v.1.15,2013-10-31 05:10:00,
2013-10-31 01:15:00,39.8,38.2,30.06,SSE,166,0.0,16.0,94,0.00,,,0.00,Wunderground v.1.15,2013-10-31 05:15:00,
2013-10-31 01:20:00,39.8,38.2,30.06,SSE,166,0.0,16.0,94,0.00,,,0.00,Wunderground v.1.15,2013-10-31 05:20:00,
2013-10-31 01:25:00,39.6,37.7,30.06,SSE,166,0.0,16.0,93,0.00,,,0.00,Wunderground v.1.15,2013-10-31 05:25:00,
2013-10-31 01:35:00,39.6,38.0,30.06,SSE,166,0.0,16.0,94,0.00,,,0.00,Wunderground v.1.15,2013-10-31 05:35:00,
2013-10-31 01:40:00,39.8,38.2,30.06,SSE,166,0.0,16.0,94,0.00,,,0.00,Wunderground v.1.15,2013-10-31 05:40:00,
2013-10-31 01:45:00,39.8,38.2,30.06,SSE,166,0.0,16.0,94,0.00,,,0.00,Wunderground v.1.15,2013-10-31 05:45:00,
2013-10-31 01:50:00,39.7,38.1,30.06,SSE,166,0.0,16.0,94,0.00,,,0.00,Wunderground v.1.15,2013-10-31 05:50:00,
2013-10-31 02:00:00,39.7,38.1,30.05,SSE,166,0.0,16.0,94,0.00,,,0.00,Wunderground v.1.15,2013-10-31 06:00:00,
2013-10-31 02:05:00,39.8,38.2,30.05,SSE,166,0.0,16.0,94,0.00,,,0.00,Wunderground v.1.15,2013-10-31 06:05:00,
2013-10-31 02:10:00,40.0,38.4,30.05,SSE,166,0.0,16.0,94,0.00,,,0.00,Wunderground v.1.15,2013-10-31 06:10:00,
2013-10-31 02:15:00,40.9,39.3,30.05,SSE,166,0.0,16.0,94,0.00,,,0.00,Wunderground v.1.15,2013-10-31 06:15:00,
2013-10-31 02:20:00,41.2,39.1,30.04,SSE,166,0.0,16.0,92,0.00,,,0.00,Wunderground v.1.15,2013-10-31 06:20:00,
2013-10-31 02:30:00,40.6,38.2,30.04,SSE,166,1.0,16.0,91,0.00,,,0.00,Wunderground v.1.15,2013-10-31 06:30:00,
2013-10-31 02:40:00,40.2,37.8,30.03,SSE,166,0.0,16.0,91,0.00,,,0.00,Wunderground v.1.15,2013-10-31 06:40:00,
2013-10-31 02:45:00,40.0,37.9,30.02,SSE,166,1.0,16.0,92,0.00,,,0.00,Wunderground v.1.15,2013-10-31 06:45:00,
2013-10-31 02:50:00,39.9,37.8,30.02,SSE,166,1.0,1.0,92,0.00,,,0.00,Wunderground v.1.15,2013-10-31 06:50:00,
2013-10-31 02:55:00,39.8,37.7,30.02,SSE,166,0.0,16.0,92,0.00,,,0.00,Wunderground v.1.15,2013-10-31 06:55:00,
2013-10-31 03:00:00,39.9,38.0,30.02,SSE,166,0.0,16.0,93,0.00,,,0.00,Wunderground v.1.15,2013-10-31 07:00:00,
2013-10-31 03:10:00,40.0,38.1,30.00,SSE,166,0.0,16.0,93,0.00,,,0.00,Wunderground v.1.15,2013-10-31 07:10:00,
2013-10-31 03:15:00,40.1,38.2,30.00,SSE,166,0.0,16.0,93,0.00,,,0.00,Wunderground v.1.15,2013-10-31 07:15:00,
2013-10-31 03:20:00,40.2,38.3,30.00,SSE,166,0.0,16.0,93,0.00,,,0.00,Wunderground v.1.15,2013-10-31 07:20:00,
2013-10-31 03:25:00,40.3,38.4,30.00,SSE,166,0.0,16.0,93,0.00,,,0.00,Wunderground v.1.15,2013-10-31 07:25:00,
2013-10-31 03:35:00,40.5,38.6,29.99,SSE,166,0.0,16.0,93,0.00,,,0.00,Wunderground v.1.15,2013-10-31 07:35:00,
2013-10-31 03:45:00,40.7,38.8,29.98,SSE,166,0.0,16.0,93,0.00,,,0.00,Wunderground v.1.15,2013-10-31 07:45:00,
2013-10-31 03:50:00,40.7,39.1,29.98,SSE,166,0.0,16.0,94,0.00,,,0.00,Wunderground v.1.15,2013-10-31 07:50:00,
2013-10-31 03:55:00,40.7,38.8,29.98,SSE,166,0.0,16.0,93,0.00,,,0.00,Wunderground v.1.15,2013-10-31 07:55:00,
2013-10-31 04:00:00,40.8,39.2,29.98,SSE,166,0.0,16.0,94,0.00,,,0.00,Wunderground v.1.15,2013-10-31 08:00:00,
2013-10-31 04:05:00,40.5,38.6,29.97,SSE,166,0.0,16.0,93,0.00,,,0.00,Wunderground v.1.15,2013-10-31 08:05:00,
2013-10-31 04:15:00,40.5,38.9,29.96,SSE,166,0.0,16.0,94,0.00,,,0.00,Wunderground v.1.15,2013-10-31 08:15:00,
2013-10-31 04:20:00,40.6,39.0,29.96,SSE,166,0.0,16.0,94,0.00,,,0.00,Wunderground v.1.15,2013-10-31 08:20:00,
2013-10-31 04:25:00,40.9,39.6,29.97,SSE,166,0.0,16.0,95,0.00,,,0.00,Wunderground v.1.15,2013-10-31 08:25:00,
2013-10-31 04:30:00,41.3,40.0,29.97,SSE,166,0.0,16.0,95,0.00,,,0.00,Wunderground v.1.15,2013-10-31 08:30:00,
2013-10-31 04:40:00,42.1,40.8,29.96,SSE,166,0.0,16.0,95,0.00,,,0.00,Wunderground v.1.15,2013-10-31 08:40:00,
2013-10-31 04:50:00,45.5,45.2,29.96,WSW,244,1.0,16.0,99,0.00,,,0.00,Wunderground v.1.15,2013-10-31 08:50:00,
2013-10-31 04:55:00,48.0,47.2,29.96,SW,229,2.0,16.0,97,0.00,,,0.00,Wunderground v.1.15,2013-10-31 08:55:00,
2013-10-31 05:00:00,49.5,47.8,29.95,SSW,213,2.0,16.0,94,0.00,,,0.00,Wunderground v.1.15,2013-10-31 09:00:00,
2013-10-31 05:05:00,50.5,48.3,29.95,South,182,2.0,16.0,92,0.00,,,0.00,Wunderground v.1.15,2013-10-31 09:05:00,
2013-10-31 05:10:00,51.3,49.1,29.95,South,184,2.0,2.0,92,0.00,,,0.00,Wunderground v.1.15,2013-10-31 09:10:00,
2013-10-31 05:15:00,51.9,49.6,29.95,SW,219,2.0,6.0,92,0.00,,,0.00,Wunderground v.1.15,2013-10-31 09:15:00,
2013-10-31 05:25:00,52.9,50.3,29.94,SSW,210,2.0,8.0,91,0.00,,,0.00,Wunderground v.1.15,2013-10-31 09:25:00,
2013-10-31 05:30:00,53.3,50.4,29.94,SSW,211,3.0,3.0,90,0.00,,,0.00,Wunderground v.1.15,2013-10-31 09:30:00,
2013-10-31 05:40:00,53.7,50.8,29.93,SE,145,3.0,16.0,90,0.00,,,0.00,Wunderground v.1.15,2013-10-31 09:40:00,
2013-10-31 05:45:00,53.9,51.0,29.93,South,189,3.0,16.0,90,0.00,,,0.00,Wunderground v.1.15,2013-10-31 09:45:00,
2013-10-31 05:50:00,54.0,51.1,29.92,South,171,3.0,3.0,90,0.00,,,0.00,Wunderground v.1.15,2013-10-31 09:50:00,
2013-10-31 06:00:00,54.2,51.3,29.92,SW,222,3.0,16.0,90,0.00,,,0.00,Wunderground v.1.15,2013-10-31 10:00:00,
2013-10-31 06:05:00,54.5,51.6,29.92,SSW,209,4.0,16.0,90,0.00,,,0.00,Wunderground v.1.15,2013-10-31 10:05:00,
2013-10-31 06:10:00,54.7,51.8,29.92,SW,215,5.0,16.0,90,0.00,,,0.00,Wunderground v.1.15,2013-10-31 10:10:00,
2013-10-31 06:15:00,54.7,51.8,29.92,SSW,211,4.0,16.0,90,0.00,,,0.00,Wunderground v.1.15,2013-10-31 10:15:00,
2013-10-31 06:20:00,54.7,51.8,29.92,SSW,205,3.0,16.0,90,0.00,,,0.00,Wunderground v.1.15,2013-10-31 10:20:00,
2013-10-31 06:30:00,54.4,51.8,29.92,South,172,2.0,2.0,91,0.00,,,0.00,Wunderground v.1.15,2013-10-31 10:30:00,
2013-10-31 06:40:00,54.4,52.1,29.91,SSW,200,3.0,16.0,92,0.14,,,0.02,Wunderground v.1.15,2013-10-31 10:40:00,
2013-10-31 06:45:00,54.4,52.1,29.91,SW,220,4.0,16.0,92,0.15,,,0.03,Wunderground v.1.15,2013-10-31 10:45:00,
2013-10-31 06:50:00,54.3,52.0,29.91,SSW,208,5.0,16.0,92,0.53,,,0.06,Wunderground v.1.15,2013-10-31 10:50:00,
2013-10-31 06:55:00,54.2,52.2,29.90,SSW,198,4.0,16.0,93,0.36,,,0.08,Wunderground v.1.15,2013-10-31 10:55:00,
2013-10-31 07:05:00,54.0,52.6,29.91,SSW,200,3.0,16.0,95,0.40,,,0.14,Wunderground v.1.15,2013-10-31 11:05:00,
2013-10-31 07:10:00,54.0,52.6,29.90,SSW,207,5.0,16.0,95,0.23,,,0.16,Wunderground v.1.15,2013-10-31 11:10:00,
2013-10-31 07:15:00,54.0,52.6,29.89,SW,216,5.0,16.0,95,0.24,,,0.19,Wunderground v.1.15,2013-10-31 11:15:00,
2013-10-31 07:20:00,54.1,53.0,29.89,SW,217,5.0,5.0,96,0.23,,,0.21,Wunderground v.1.15,2013-10-31 11:20:00,
2013-10-31 07:25:00,54.2,53.1,29.90,SW,215,5.0,16.0,96,0.18,,,0.22,Wunderground v.1.15,2013-10-31 11:25:00,
2013-10-31 07:35:00,54.2,53.1,29.89,SSW,210,6.0,16.0,96,0.46,,,0.33,Wunderground v.1.15,2013-10-31 11:35:00,
2013-10-31 07:45:00,54.3,53.5,29.88,SSW,209,6.0,7.0,97,0.17,,,0.36,Wunderground v.1.15,2013-10-31 11:45:00,
2013-10-31 07:50:00,54.3,53.5,29.88,SSW,211,6.0,6.0,97,0.11,,,0.36,Wunderground v.1.15,2013-10-31 11:50:00,
2013-10-31 07:55:00,54.3,53.2,29.89,SSW,209,6.0,7.0,96,0.15,,,0.38,Wunderground v.1.15,2013-10-31 11:55:00,
2013-10-31 08:00:00,54.4,53.6,29.89,SSW,211,6.0,16.0,97,0.52,,,0.41,Wunderground v.1.15,2013-10-31 12:00:00,
2013-10-31 08:05:00,54.5,53.7,29.89,SSW,204,7.0,16.0,97,0.40,,,0.44,Wunderground v.1.15,2013-10-31 12:05:00,
2013-10-31 08:10:00,54.5,53.7,29.88,SSW,201,8.0,16.0,97,0.13,,,0.45,Wunderground v.1.15,2013-10-31 12:10:00,
2013-10-31 08:15:00,54.6,53.8,29.88,SW,217,8.0,16.0,97,0.10,,,0.45,Wunderground v.1.15,2013-10-31 12:15:00,
2013-10-31 08:20:00,54.8,53.7,29.88,SW,221,9.0,9.0,96,0.07,,,0.46,Wunderground v.1.15,2013-10-31 12:20:00,
2013-10-31 08:25:00,54.9,53.8,29.88,SSW,203,9.0,16.0,96,0.07,,,0.46,Wunderground v.1.15,2013-10-31 12:25:00,
2013-10-31 08:35:00,55.2,54.1,29.88,SW,229,8.0,16.0,96,0.00,,,0.46,Wunderground v.1.15,2013-10-31 12:35:00,
2013-10-31 08:40:00,55.4,54.3,29.87,SSW,203,9.0,16.0,96,0.00,,,0.46,Wunderground v.1.15,2013-10-31 12:40:00,
2013-10-31 08:50:00,56.0,54.3,29.86,SSW,209,8.0,8.0,94,0.00,,,0.46,Wunderground v.1.15,2013-10-31 12:50:00,
2013-10-31 08:55:00,56.3,54.6,29.87,SSW,207,8.0,10.0,94,0.00,,,0.46,Wunderground v.1.15,2013-10-31 12:55:00,
2013-10-31 09:00:00,56.4,54.4,29.87,SSW,209,9.0,16.0,93,0.00,,,0.46,Wunderground v.1.15,2013-10-31 13:00:00,
2013-10-31 09:05:00,56.5,54.5,29.87,SSW,198,8.0,16.0,93,0.00,,,0.46,Wunderground v.1.15,2013-10-31 13:05:00,
2013-10-31 09:10:00,56.6,54.6,29.87,SSW,208,8.0,16.0,93,0.00,,,0.46,Wunderground v.1.15,2013-10-31 13:10:00,
2013-10-31 09:20:00,56.6,54.6,29.87,SW,221,7.0,7.0,93,0.00,,,0.46,Wunderground v.1.15,2013-10-31 13:20:00,
2013-10-31 09:25:00,56.7,54.7,29.86,SSW,201,8.0,10.0,93,0.00,,,0.46,Wunderground v.1.15,2013-10-31 13:25:00,
2013-10-31 09:30:00,56.9,54.9,29.86,SSW,203,8.0,16.0,93,0.00,,,0.46,Wunderground v.1.15,2013-10-31 13:30:00,
2013-10-31 09:35:00,57.1,55.1,29.86,SW,219,7.0,16.0,93,0.00,,,0.46,Wunderground v.1.15,2013-10-31 13:35:00,
2013-10-31 09:40:00,57.3,55.3,29.86,SSW,196,7.0,16.0,93,0.00,,,0.46,Wunderground v.1.15,2013-10-31 13:40:00,
2013-10-31 09:45:00,57.4,55.4,29.86,SW,218,7.0,16.0,93,0.00,,,0.46,Wunderground v.1.15,2013-10-31 13:45:00,
2013-10-31 09:55:00,57.9,55.9,29.85,SSW,206,8.0,16.0,93,0.00,,,0.46,Wunderground v.1.15,2013-10-31 13:55:00,
2013-10-31 10:00:00,58.1,56.1,29.84,SW,219,7.0,7.0,93,0.00,,,0.46,Wunderground v.1.15,2013-10-31 14:00:00,
2013-10-31 10:05:00,58.4,56.4,29.84,SSW,210,6.0,16.0,93,0.00,,,0.46,Wunderground v.1.15,2013-10-31 14:05:00,
2013-10-31 10:10:00,58.6,56.3,29.83,SW,217,7.0,16.0,92,0.00,,,0.46,Wunderground v.1.15,2013-10-31 14:10:00,
2013-10-31 10:15:00,58.8,56.5,29.83,SW,220,7.0,16.0,92,0.00,,,0.46,Wunderground v.1.15,2013-10-31 14:15:00,
2013-10-31 10:25:00,59.1,56.5,29.83,SSW,207,8.0,8.0,91,0.00,,,0.46,Wunderground v.1.15,2013-10-31 14:25:00,
2013-10-31 10:30:00,59.1,56.5,29.83,SSE,150,7.0,7.0,91,0.00,,,0.46,Wunderground v.1.15,2013-10-31 14:30:00,
2013-10-31 10:35:00,59.1,56.5,29.82,SSW,193,7.0,16.0,91,0.00,,,0.46,Wunderground v.1.15,2013-10-31 14:35:00,
2013-10-31 10:40:00,59.2,56.6,29.82,SSW,209,7.0,7.0,91,0.00,,,0.46,Wunderground v.1.15,2013-10-31 14:40:00,
2013-10-31 10:45:00,59.3,56.7,29.82,SSW,211,7.0,8.0,91,0.00,,,0.46,Wunderground v.1.15,2013-10-31 14:45:00,
2013-10-31 10:50:00,59.3,56.7,29.82,WSW,242,6.0,16.0,91,0.00,,,0.46,Wunderground v.1.15,2013-10-31 14:50:00,
2013-10-31 11:00:00,59.7,57.1,29.82,SSW,209,7.0,16.0,91,0.00,,,0.46,Wunderground v.1.15,2013-10-31 15:00:00,
2013-10-31 11:05:00,59.9,57.3,29.81,SW,222,7.0,16.0,91,0.00,,,0.46,Wunderground v.1.15,2013-10-31 15:05:00,
2013-10-31 11:10:00,60.1,57.5,29.81,SSW,200,7.0,7.0,91,0.00,,,0.46,Wunderground v.1.15,2013-10-31 15:10:00,
2013-10-31 11:15:00,60.4,57.8,29.81,SW,225,7.0,16.0,91,0.00,,,0.46,Wunderground v.1.15,2013-10-31 15:15:00,
2013-10-31 11:20:00,60.6,58.0,29.81,SSW,211,7.0,7.0,91,0.00,,,0.46,Wunderground v.1.15,2013-10-31 15:20:00,
2013-10-31 11:30:00,61.2,58.2,29.80,SSW,205,7.0,7.0,90,0.00,,,0.46,Wunderground v.1.15,2013-10-31 15:30:00,
2013-10-31 11:35:00,61.5,58.2,29.80,SW,220,7.0,16.0,89,0.00,,,0.46,Wunderground v.1.15,2013-10-31 15:35:00,
2013-10-31 11:40:00,61.7,58.4,29.80,SSW,211,7.0,16.0,89,0.00,,,0.46,Wunderground v.1.15,2013-10-31 15:40:00,
2013-10-31 11:45:00,62.0,58.7,29.80,SSW,194,7.0,16.0,89,0.00,,,0.46,Wunderground v.1.15,2013-10-31 15:45:00,
2013-10-31 11:50:00,62.6,59.0,29.79,SW,223,7.0,7.0,88,0.00,,,0.46,Wunderground v.1.15,2013-10-31 15:50:00,
2013-10-31 11:55:00,63.2,59.3,29.79,SW,220,6.0,16.0,87,0.00,,,0.46,Wunderground v.1.15,2013-10-31 15:55:00,
2013-10-31 12:00:00,63.7,59.4,29.78,SSW,207,7.0,16.0,86,0.00,,,0.46,Wunderground v.1.15,2013-10-31 16:00:00,
2013-10-31 12:05:00,64.0,59.4,29.78,SSW,211,8.0,16.0,85,0.00,,,0.46,Wunderground v.1.15,2013-10-31 16:05:00,
2013-10-31 12:10:00,64.4,59.8,29.78,WSW,238,9.0,16.0,85,0.00,,,0.46,Wunderground v.1.15,2013-10-31 16:10:00,
2013-10-31 12:15:00,64.7,59.4,29.77,SSW,208,9.0,16.0,83,0.00,,,0.46,Wunderground v.1.15,2013-10-31 16:15:00,
2013-10-31 12:20:00,65.0,59.7,29.77,SSW,204,10.0,10.0,83,0.00,,,0.46,Wunderground v.1.15,2013-10-31 16:20:00,
2013-10-31 12:25:00,65.5,59.9,29.76,SSW,192,9.0,16.0,82,0.00,,,0.46,Wunderground v.1.15,2013-10-31 16:25:00,
2013-10-31 12:35:00,65.8,59.5,29.75,SSW,213,10.0,16.0,80,0.00,,,0.46,Wunderground v.1.15,2013-10-31 16:35:00,
2013-10-31 12:40:00,66.0,59.7,29.75,SSW,201,9.0,16.0,80,0.00,,,0.46,Wunderground v.1.15,2013-10-31 16:40:00,
2013-10-31 12:45:00,66.0,59.3,29.75,SW,217,11.0,16.0,79,0.00,,,0.46,Wunderground v.1.15,2013-10-31 16:45:00,
2013-10-31 12:50:00,66.2,59.5,29.74,WSW,240,10.0,17.0,79,0.00,,,0.46,Wunderground v.1.15,2013-10-31 16:50:00,
2013-10-31 12:55:00,66.3,59.6,29.75,SW,229,10.0,17.0,79,0.00,,,0.46,Wunderground v.1.15,2013-10-31 16:55:00,
2013-10-31 13:05:00,66.3,59.6,29.74,SSW,203,8.0,16.0,79,0.00,,,0.46,Wunderground v.1.15,2013-10-31 17:05:00,
2013-10-31 13:10:00,66.4,59.7,29.73,WSW,242,7.0,7.0,79,0.00,,,0.46,Wunderground v.1.15,2013-10-31 17:10:00,
2013-10-31 13:15:00,66.6,59.5,29.73,SSW,196,7.0,16.0,78,0.00,,,0.46,Wunderground v.1.15,2013-10-31 17:15:00,
2013-10-31 13:20:00,66.7,59.3,29.73,SW,221,8.0,16.0,77,0.00,,,0.46,Wunderground v.1.15,2013-10-31 17:20:00,
2013-10-31 13:25:00,66.8,59.7,29.73,SSW,201,9.0,16.0,78,0.00,,,0.46,Wunderground v.1.15,2013-10-31 17:25:00,
2013-10-31 13:30:00,66.8,59.4,29.73,WSW,242,9.0,16.0,77,0.00,,,0.46,Wunderground v.1.15,2013-10-31 17:30:00,
2013-10-31 13:40:00,66.9,59.1,29.72,SSW,213,11.0,11.0,76,0.00,,,0.46,Wunderground v.1.15,2013-10-31 17:40:00,
2013-10-31 13:45:00,66.9,59.1,29.71,SSW,200,10.0,16.0,76,0.00,,,0.46,Wunderground v.1.15,2013-10-31 17:45:00,
2013-10-31 13:50:00,66.9,59.1,29.71,SSW,209,9.0,16.0,76,0.00,,,0.46,Wunderground v.1.15,2013-10-31 17:50:00,
2013-10-31 13:55:00,67.0,59.2,29.71,SW,225,8.0,16.0,76,0.00,,,0.46,Wunderground v.1.15,2013-10-31 17:55:00,
2013-10-31 14:00:00,67.2,59.0,29.71,SW,229,9.0,16.0,75,0.00,,,0.46,Wunderground v.1.15,2013-10-31 18:00:00,
2013-10-31 14:10:00,67.4,58.8,29.70,SSW,203,11.0,11.0,74,0.00,,,0.46,Wunderground v.1.15,2013-10-31 18:10:00,
2013-10-31 14:15:00,67.3,58.3,29.70,SW,227,9.0,16.0,73,0.00,,,0.46,Wunderground v.1.15,2013-10-31 18:15:00,
2013-10-31 14:20:00,67.3,58.0,29.70,SW,223,9.0,9.0,72,0.00,,,0.46,Wunderground v.1.15,2013-10-31 18:20:00,
2013-10-31 14:25:00,67.2,57.9,29.70,SSW,211,8.0,16.0,72,0.00,,,0.46,Wunderground v.1.15,2013-10-31 18:25:00,
2013-10-31 14:30:00,67.2,57.9,29.70,SSW,211,7.0,16.0,72,0.00,,,0.46,Wunderground v.1.15,2013-10-31 18:30:00,
2013-10-31 14:35:00,67.2,57.5,29.70,SW,232,10.0,16.0,71,0.00,,,0.46,Wunderground v.1.15,2013-10-31 18:35:00,
2013-10-31 14:45:00,67.1,57.8,29.70,SSW,193,7.0,10.0,72,0.00,,,0.46,Wunderground v.1.15,2013-10-31 18:45:00,
2013-10-31 14:50:00,67.0,57.7,29.69,SSW,201,8.0,16.0,72,0.00,,,0.46,Wunderground v.1.15,2013-10-31 18:50:00,
2013-10-31 14:55:00,66.9,57.6,29.69,SSW,211,9.0,16.0,72,0.00,,,0.46,Wunderground v.1.15,2013-10-31 18:55:00,
2013-10-31 15:00:00,66.8,57.5,29.69,SSW,211,9.0,9.0,72,0.00,,,0.46,Wunderground v.1.15,2013-10-31 19:00:00,
2013-10-31 15:05:00,66.8,57.9,29.69,SW,215,8.0,10.0,73,0.00,,,0.46,Wunderground v.1.15,2013-10-31 19:05:00,
2013-10-31 15:10:00,66.7,57.8,29.70,SW,220,7.0,7.0,73,0.00,,,0.46,Wunderground v.1.15,2013-10-31 19:10:00,
2013-10-31 15:15:00,66.7,57.4,29.70,SSW,213,8.0,8.0,72,0.00,,,0.46,Wunderground v.1.15,2013-10-31 19:15:00,
2013-10-31 15:20:00,66.6,57.3,29.70,SW,232,9.0,9.0,72,0.00,,,0.46,Wunderground v.1.15,2013-10-31 19:20:00,
2013-10-31 15:25:00,66.5,57.2,29.69,SSW,201,9.0,16.0,72,0.00,,,0.46,Wunderground v.1.15,2013-10-31 19:25:00,
2013-10-31 15:35:00,66.2,57.3,29.68,SSW,211,9.0,16.0,73,0.00,,,0.46,Wunderground v.1.15,2013-10-31 19:35:00,
2013-10-31 15:40:00,66.1,57.2,29.68,WSW,248,9.0,9.0,73,0.00,,,0.46,Wunderground v.1.15,2013-10-31 19:40:00,
2013-10-31 15:45:00,66.1,57.2,29.69,SW,217,9.0,10.0,73,0.00,,,0.46,Wunderground v.1.15,2013-10-31 19:45:00,
2013-10-31 15:50:00,66.0,57.5,29.69,SW,218,8.0,16.0,74,0.00,,,0.46,Wunderground v.1.15,2013-10-31 19:50:00,
2013-10-31 15:55:00,65.9,57.4,29.68,SW,226,9.0,16.0,74,0.00,,,0.46,Wunderground v.1.15,2013-10-31 19:55:00,
2013-10-31 16:00:00,65.8,57.3,29.68,SW,216,10.0,10.0,74,0.00,,,0.46,Wunderground v.1.15,2013-10-31 20:00:00,
2013-10-31 16:05:00,65.6,57.1,29.68,SW,219,10.0,16.0,74,0.00,,,0.46,Wunderground v.1.15,2013-10-31 20:05:00,
2013-10-31 16:10:00,65.4,57.3,29.68,WSW,249,11.0,11.0,75,0.00,,,0.46,Wunderground v.1.15,2013-10-31 20:10:00,
2013-10-31 16:15:00,65.2,57.1,29.67,ESE,103,10.0,16.0,75,0.00,,,0.46,Wunderground v.1.15,2013-10-31 20:15:00,
2013-10-31 16:20:00,65.0,57.2,29.67,SSW,197,10.0,10.0,76,0.00,,,0.46,Wunderground v.1.15,2013-10-31 20:20:00,
2013-10-31 16:25:00,64.8,57.4,29.67,SSW,209,10.0,14.0,77,0.00,,,0.46,Wunderground v.1.15,2013-10-31 20:25:00,
2013-10-31 16:30:00,64.7,57.3,29.67,SSW,203,10.0,10.0,77,0.00,,,0.46,Wunderground v.1.15,2013-10-31 20:30:00,
2013-10-31 16:35:00,64.5,57.1,29.67,SSW,199,9.0,16.0,77,0.00,,,0.46,Wunderground v.1.15,2013-10-31 20:35:00,
2013-10-31 16:40:00,64.5,57.5,29.66,SW,215,8.0,16.0,78,0.00,,,0.46,Wunderground v.1.15,2013-10-31 20:40:00,
2013-10-31 16:50:00,64.3,57.3,29.66,SW,235,8.0,16.0,78,0.00,,,0.46,Wunderground v.1.15,2013-10-31 20:50:00,
2013-10-31 16:55:00,64.2,57.2,29.65,SSW,205,8.0,16.0,78,0.00,,,0.46,Wunderground v.1.15,2013-10-31 20:55:00,
2013-10-31 17:00:00,64.3,57.6,29.65,SW,227,8.0,8.0,79,0.00,,,0.46,Wunderground v.1.15,2013-10-31 21:00:00,
2013-10-31 17:05:00,64.2,57.2,29.65,SW,217,8.0,10.0,78,0.00,,,0.46,Wunderground v.1.15,2013-10-31 21:05:00,
2013-10-31 17:10:00,64.3,57.3,29.65,SW,218,8.0,16.0,78,0.00,,,0.46,Wunderground v.1.15,2013-10-31 21:10:00,
2013-10-31 17:15:00,64.3,57.3,29.65,SSW,200,7.0,16.0,78,0.00,,,0.46,Wunderground v.1.15,2013-10-31 21:15:00,
2013-10-31 17:25:00,64.3,56.9,29.65,SSW,211,8.0,16.0,77,0.00,,,0.46,Wunderground v.1.15,2013-10-31 21:25:00,
2013-10-31 17:30:00,64.2,56.8,29.64,SW,215,8.0,16.0,77,0.00,,,0.46,Wunderground v.1.15,2013-10-31 21:30:00,
2013-10-31 17:35:00,64.3,56.6,29.64,SSW,213,8.0,18.0,76,0.00,,,0.46,Wunderground v.1.15,2013-10-31 21:35:00,
2013-10-31 17:40:00,64.4,56.7,29.64,SW,214,9.0,16.0,76,0.00,,,0.46,Wunderground v.1.15,2013-10-31 21:40:00,
2013-10-31 17:45:00,64.3,56.2,29.64,SSW,207,9.0,16.0,75,0.00,,,0.46,Wunderground v.1.15,2013-10-31 21:45:00,
2013-10-31 17:55:00,64.2,55.7,29.63,SW,232,9.0,16.0,74,0.00,,,0.46,Wunderground v.1.15,2013-10-31 21:55:00,
2013-10-31 18:00:00,64.1,55.6,29.63,SW,219,10.0,16.0,74,0.00,,,0.46,Wunderground v.1.15,2013-10-31 22:00:00,
2013-10-31 18:05:00,63.9,55.1,29.62,SSW,213,11.0,16.0,73,0.00,,,0.46,Wunderground v.1.15,2013-10-31 22:05:00,
2013-10-31 18:10:00,63.7,54.9,29.62,SW,219,11.0,16.0,73,0.00,,,0.46,Wunderground v.1.15,2013-10-31 22:10:00,
2013-10-31 18:15:00,63.6,54.8,29.61,SSW,213,10.0,16.0,73,0.00,,,0.46,Wunderground v.1.15,2013-10-31 22:15:00,
2013-10-31 18:20:00,63.4,55.0,29.61,SW,229,9.0,9.0,74,0.00,,,0.46,Wunderground v.1.15,2013-10-31 22:20:00,
2013-10-31 18:30:00,62.6,55.6,29.60,SSW,204,7.0,16.0,78,0.00,,,0.46,Wunderground v.1.15,2013-10-31 22:30:00,
2013-10-31 18:35:00,62.2,56.0,29.60,SSW,208,6.0,16.0,80,0.00,,,0.46,Wunderground v.1.15,2013-10-31 22:35:00,
2013-10-31 18:40:00,61.8,56.2,29.60,SSW,203,6.0,16.0,82,0.00,,,0.46,Wunderground v.1.15,2013-10-31 22:40:00,
2013-10-31 18:45:00,61.5,56.3,29.60,SSW,198,6.0,16.0,83,0.00,,,0.46,Wunderground v.1.15,2013-10-31 22:45:00,
2013-10-31 18:50:00,61.3,56.4,29.59,SSW,207,6.0,16.0,84,0.00,,,0.46,Wunderground v.1.15,2013-10-31 22:50:00,
2013-10-31 18:55:00,61.1,56.6,29.59,South,186,5.0,16.0,85,0.00,,,0.46,Wunderground v.1.15,2013-10-31 22:55:00,
2013-10-31 19:00:00,60.9,56.7,29.59,SW,215,3.0,16.0,86,0.00,,,0.46,Wunderground v.1.15,2013-10-31 23:00:00,
2013-10-31 19:05:00,60.9,56.7,29.59,South,189,3.0,16.0,86,0.00,,,0.46,Wunderground v.1.15,2013-10-31 23:05:00,
2013-10-31 19:10:00,61.0,56.8,29.58,SSW,202,4.0,16.0,86,0.00,,,0.46,Wunderground v.1.15,2013-10-31 23:10:00,
2013-10-31 19:15:00,61.1,56.9,29.58,SSW,200,4.0,16.0,86,0.00,,,0.46,Wunderground v.1.15,2013-10-31 23:15:00,
2013-10-31 19:20:00,61.4,56.8,29.58,SSW,200,6.0,16.0,85,0.00,,,0.46,Wunderground v.1.15,2013-10-31 23:20:00,
2013-10-31 19:30:00,61.7,56.8,29.57,SSW,211,7.0,7.0,84,0.00,,,0.46,Wunderground v.1.15,2013-10-31 23:30:00,
2013-10-31 19:35:00,61.8,56.6,29.57,SSW,201,8.0,8.0,83,0.00,,,0.46,Wunderground v.1.15,2013-10-31 23:35:00,
2013-10-31 19:40:00,61.8,56.6,29.57,SSW,213,8.0,16.0,83,0.00,,,0.46,Wunderground v.1.15,2013-10-31 23:40:00,
2013-10-31 19:45:00,62.0,56.4,29.57,SSW,201,9.0,16.0,82,0.00,,,0.46,Wunderground v.1.15,2013-10-31 23:45:00,
2013-10-31 19:50:00,62.0,56.4,29.56,SE,146,9.0,16.0,82,0.00,,,0.46,Wunderground v.1.15,2013-10-31 23:50:00,
2013-10-31 19:55:00,62.0,56.1,29.55,SSW,205,9.0,16.0,81,0.00,,,0.46,Wunderground v.1.15,2013-10-31 23:55:00,
2013-10-31 20:05:00,61.8,56.2,29.54,SSW,209,10.0,17.0,82,0.00,,,0.46,Wunderground v.1.15,2013-11-01 00:05:00,
2013-10-31 20:10:00,61.7,56.1,29.54,SSW,211,10.0,16.0,82,0.00,,,0.46,Wunderground v.1.15,2013-11-01 00:10:00,
2013-10-31 20:15:00,61.4,56.2,29.53,SE,137,10.0,16.0,83,0.00,,,0.46,Wunderground v.1.15,2013-11-01 00:15:00,
2013-10-31 20:20:00,61.1,56.2,29.53,WSW,243,10.0,10.0,84,0.00,,,0.46,Wunderground v.1.15,2013-11-01 00:20:00,
2013-10-31 20:25:00,60.9,56.0,29.53,WSW,242,10.0,11.0,84,0.00,,,0.46,Wunderground v.1.15,2013-11-01 00:25:00,
2013-10-31 20:35:00,60.6,56.1,29.52,SSW,213,10.0,16.0,85,0.00,,,0.46,Wunderground v.1.15,2013-11-01 00:35:00,
2013-10-31 20:40:00,60.3,56.4,29.51,SW,232,10.0,10.0,87,0.00,,,0.46,Wunderground v.1.15,2013-11-01 00:40:00,
2013-10-31 20:45:00,59.9,56.3,29.51,South,186,10.0,18.0,88,0.00,,,0.47,Wunderground v.1.15,2013-11-01 00:45:00,
2013-10-31 20:50:00,59.9,56.3,29.51,SSW,205,10.0,16.0,88,0.00,,,0.47,Wunderground v.1.15,2013-11-01 00:50:00,
2013-10-31 20:55:00,59.9,56.3,29.51,SSW,203,11.0,16.0,88,0.00,,,0.47,Wunderground v.1.15,2013-11-01 00:55:00,
2013-10-31 21:00:00,59.8,56.2,29.50,WSW,238,12.0,12.0,88,0.00,,,0.47,Wunderground v.1.15,2013-11-01 01:00:00,
2013-10-31 21:10:00,59.5,56.3,29.49,SW,220,11.0,16.0,89,0.00,,,0.48,Wunderground v.1.15,2013-11-01 01:10:00,
2013-10-31 21:15:00,59.6,56.4,29.48,SW,216,11.0,16.0,89,0.00,,,0.48,Wunderground v.1.15,2013-11-01 01:15:00,
2013-10-31 21:20:00,59.6,56.4,29.47,SW,223,12.0,16.0,89,0.00,,,0.48,Wunderground v.1.15,2013-11-01 01:20:00,
2013-10-31 21:25:00,59.6,56.7,29.47,SSW,212,11.0,16.0,90,0.00,,,0.48,Wunderground v.1.15,2013-11-01 01:25:00,
2013-10-31 21:30:00,59.5,56.6,29.46,SSW,205,11.0,11.0,90,0.00,,,0.48,Wunderground v.1.15,2013-11-01 01:30:00,
2013-10-31 21:40:00,59.5,56.9,29.46,SSW,211,14.0,14.0,91,0.18,,,0.49,Wunderground v.1.15,2013-11-01 01:40:00,
2013-10-31 21:45:00,59.4,56.8,29.46,SSW,202,12.0,16.0,91,0.12,,,0.50,Wunderground v.1.15,2013-11-01 01:45:00,
2013-10-31 21:50:00,59.2,56.9,29.46,SW,227,11.0,16.0,92,0.08,,,0.51,Wunderground v.1.15,2013-11-01 01:50:00,
2013-10-31 21:55:00,59.1,56.8,29.45,SW,219,11.0,16.0,92,0.15,,,0.52,Wunderground v.1.15,2013-11-01 01:55:00,
2013-10-31 22:00:00,59.0,57.0,29.45,SSW,198,10.0,16.0,93,0.13,,,0.53,Wunderground v.1.15,2013-11-01 02:00:00,
2013-10-31 22:05:00,59.1,57.1,29.44,SW,220,11.0,16.0,93,0.12,,,0.54,Wunderground v.1.15,2013-11-01 02:05:00,
2013-10-31 22:15:00,59.1,57.1,29.44,SSW,202,13.0,13.0,93,0.16,,,0.56,Wunderground v.1.15,2013-11-01 02:15:00,
2013-10-31 22:20:00,59.2,57.2,29.43,SW,216,13.0,16.0,93,0.09,,,0.56,Wunderground v.1.15,2013-11-01 02:20:00,
2013-10-31 22:25:00,59.2,56.9,29.43,SW,218,13.0,16.0,92,0.05,,,0.57,Wunderground v.1.15,2013-11-01 02:25:00,
2013-10-31 22:30:00,59.3,57.0,29.43,SSW,213,12.0,16.0,92,0.05,,,0.57,Wunderground v.1.15,2013-11-01 02:30:00,
2013-10-31 22:35:00,59.2,57.2,29.43,SW,215,11.0,16.0,93,0.09,,,0.58,Wunderground v.1.15,2013-11-01 02:35:00,
2013-10-31 22:40:00,59.2,56.9,29.42,SW,223,11.0,19.0,92,0.06,,,0.58,Wunderground v.1.15,2013-11-01 02:40:00,
2013-10-31 22:45:00,59.3,57.0,29.42,SW,224,13.0,19.0,92,0.04,,,0.58,Wunderground v.1.15,2013-11-01 02:45:00,
2013-10-31 22:50:00,59.3,57.0,29.42,South,181,13.0,13.0,92,0.00,,,0.59,Wunderground v.1.15,2013-11-01 02:50:00,
2013-10-31 22:55:00,59.3,57.0,29.42,SSW,202,13.0,17.0,92,0.00,,,0.59,Wunderground v.1.15,2013-11-01 02:55:00,
2013-10-31 23:00:00,59.4,57.1,29.42,SW,216,14.0,14.0,92,0.00,,,0.59,Wunderground v.1.15,2013-11-01 03:00:00,
2013-10-31 23:05:00,59.3,57.0,29.41,SSW,209,13.0,16.0,92,0.05,,,0.60,Wunderground v.1.15,2013-11-01 03:05:00,
2013-10-31 23:15:00,59.2,56.9,29.40,SSW,213,12.0,16.0,92,0.06,,,0.61,Wunderground v.1.15,2013-11-01 03:15:00,
2013-10-31 23:20:00,59.2,56.9,29.40,SW,220,12.0,16.0,92,0.06,,,0.61,Wunderground v.1.15,2013-11-01 03:20:00,
2013-10-31 23:25:00,59.5,56.9,29.40,SSW,209,12.0,16.0,91,0.05,,,0.61,Wunderground v.1.15,2013-11-01 03:25:00,
2013-10-31 23:30:00,59.5,56.9,29.39,ESE,113,12.0,12.0,91,0.00,,,0.61,Wunderground v.1.15,2013-11-01 03:30:00,
2013-10-31 23:35:00,59.5,56.9,29.39,SSW,213,11.0,15.0,91,0.00,,,0.61,Wunderground v.1.15,2013-11-01 03:35:00,
2013-10-31 23:40:00,59.6,56.7,29.38,SSW,205,12.0,16.0,90,0.00,,,0.61,Wunderground v.1.15,2013-11-01 03:40:00,
2013-10-31 23:50:00,59.8,56.9,29.37,SW,223,11.0,17.0,90,0.00,,,0.61,Wunderground v.1.15,2013-11-01 03:50:00,
2013-10-31 23:55:00,59.9,56.6,29.37,SSW,208,11.0,17.0,89,0.00,,,0.61,Wunderground v.1.15,2013-11-01 03:55:00,